createdAt,value
2022-11-16T00:01:32.912Z,96682.41
2022-11-16T00:04:03.486Z,96686.63
2022-11-16T00:06:30.387Z,96696.28
2022-11-16T00:09:19.078Z,96696.66
2022-11-16T00:11:45.753Z,96699.38
2022-11-16T00:14:14.178Z,96702.44
2022-11-16T00:16:43.353Z,96703.59
2022-11-16T00:19:11.148Z,96695.13
2022-11-16T00:21:38.292Z,96702.84
2022-11-16T00:24:05.666Z,96702.84
2022-11-16T00:26:32.426Z,96696.66
2022-11-16T00:28:59.168Z,96688.22
2022-11-16T00:31:27.384Z,96684.34
2022-11-16T00:33:53.891Z,96677.44
2022-11-16T00:36:20.460Z,96671.25
2022-11-16T00:38:47.227Z,96673.19
2022-11-16T00:41:14.352Z,96668.97
2022-11-16T00:43:41.106Z,96678.19
2022-11-16T00:46:09.482Z,96673.97
2022-11-16T00:48:36.325Z,96678.56
2022-11-16T00:51:03.293Z,96678.56
2022-11-16T00:53:31.577Z,96679.38
2022-11-16T00:55:58.199Z,96699.38
2022-11-16T00:58:24.755Z,96707.47
2022-11-16T01:00:53.078Z,96714.41
2022-11-16T01:03:21.663Z,96722.47
2022-11-16T01:05:48.212Z,96715.91
2022-11-16T01:08:14.937Z,96722.09
2022-11-16T01:10:42.059Z,96730.94
2022-11-16T01:13:10.309Z,96722.47
2022-11-16T01:15:36.994Z,96714.00
2022-11-16T01:18:03.516Z,96714.00
2022-11-16T01:20:30.070Z,96709.78
2022-11-16T01:22:57.319Z,96709.38
2022-11-16T01:25:23.825Z,96709.38
2022-11-16T01:27:53.761Z,96714.41
2022-11-16T01:30:22.420Z,96722.47
2022-11-16T01:32:48.911Z,96727.06
2022-11-16T01:35:17.946Z,96736.34
2022-11-16T01:37:53.010Z,96745.56
2022-11-16T01:40:19.515Z,96740.19
2022-11-16T01:42:45.981Z,96741.72
2022-11-16T01:45:39.918Z,96740.94
2022-11-16T01:48:07.330Z,96734.41
2022-11-16T01:50:35.037Z,96744.03
2022-11-16T01:53:05.536Z,96740.16
2022-11-16T01:55:34.175Z,96730.56
2022-11-16T01:58:02.151Z,96727.88
2022-11-16T02:00:30.550Z,96723.25
2022-11-16T02:02:57.085Z,96711.69
2022-11-16T02:05:42.432Z,96725.19
2022-11-16T02:09:05.988Z,96735.16
2022-11-16T02:11:42.818Z,96734.41
2022-11-16T02:14:39.173Z,96737.09
2022-11-16T02:17:17.160Z,96735.56
2022-11-16T02:20:06.338Z,96735.56
2022-11-16T02:22:51.101Z,96731.31
2022-11-16T02:25:34.891Z,96729.78
2022-11-16T02:28:07.671Z,96730.94
2022-11-16T02:30:37.109Z,96736.72
2022-11-16T02:33:16.412Z,96730.94
2022-11-16T02:35:48.125Z,96724.41
2022-11-16T02:38:19.133Z,96727.84
2022-11-16T02:40:50.204Z,96734.41
2022-11-16T02:43:23.195Z,96743.63
2022-11-16T02:45:57.888Z,96740.94
2022-11-16T02:48:30.551Z,96744.41
2022-11-16T02:53:25.840Z,96750.56
2022-11-16T02:55:52.734Z,96743.25
2022-11-16T02:58:30.598Z,96738.63
2022-11-16T03:01:24.415Z,96736.72
2022-11-16T03:03:58.117Z,96723.25
2022-11-16T03:06:30.062Z,96724.78
2022-11-16T03:09:02.290Z,96728.25
2022-11-16T03:11:51.422Z,96724.78
2022-11-16T03:14:20.722Z,96724.78
2022-11-16T03:16:53.799Z,96727.09
2022-11-16T03:19:29.563Z,96724.41
2022-11-16T03:22:00.691Z,96722.47
2022-11-16T03:24:27.311Z,96722.47
2022-11-16T03:27:02.492Z,96724.78
2022-11-16T03:29:33.286Z,96729.41
2022-11-16T03:32:19.636Z,96722.88
2022-11-16T03:34:56.624Z,96734.00
2022-11-16T03:37:25.525Z,96726.31
2022-11-16T03:39:53.914Z,96719.38
2022-11-16T03:42:23.045Z,96721.69
2022-11-16T03:44:50.531Z,96719.78
2022-11-16T03:47:17.202Z,96718.25
2022-11-16T03:49:47.747Z,96715.16
2022-11-16T03:52:22.449Z,96721.69
2022-11-16T03:54:50.762Z,96722.84
2022-11-16T03:57:19.031Z,96723.63
2022-11-16T03:59:46.075Z,96724.41
2022-11-16T04:02:14.495Z,96721.72
2022-11-16T04:04:59.780Z,96727.84
2022-11-16T04:07:44.865Z,96738.25
2022-11-16T04:10:30.057Z,96728.63
2022-11-16T04:13:17.917Z,96733.25
2022-11-16T04:16:02.766Z,96727.84
2022-11-16T04:18:50.497Z,96715.53
2022-11-16T04:21:57.685Z,96722.47
2022-11-16T04:24:30.654Z,96713.19
2022-11-16T04:27:18.935Z,96728.97
2022-11-16T04:29:47.567Z,96726.28
2022-11-16T04:32:32.987Z,96723.97
2022-11-16T04:35:18.228Z,96722.44
2022-11-16T04:37:52.420Z,96724.75
2022-11-16T04:40:26.812Z,96722.03
2022-11-16T04:43:01.160Z,96720.09
2022-11-16T04:45:51.694Z,96725.47
2022-11-16T04:48:19.728Z,96718.53
2022-11-16T04:50:47.387Z,96716.22
2022-11-16T04:53:16.463Z,96717.00
2022-11-16T04:55:42.991Z,96725.44
2022-11-16T04:58:09.768Z,96721.59
2022-11-16T05:00:36.374Z,96719.63
2022-11-16T05:03:04.795Z,96721.97
2022-11-16T05:05:31.445Z,96727.34
2022-11-16T05:07:59.643Z,96727.69
2022-11-16T05:10:26.489Z,96730.75
2022-11-16T05:12:52.978Z,96732.31
2022-11-16T05:15:20.008Z,96733.84
2022-11-16T05:17:47.436Z,96732.31
2022-11-16T05:20:34.193Z,96734.63
2022-11-16T05:23:00.684Z,96733.03
2022-11-16T05:25:28.532Z,96731.13
2022-11-16T05:27:58.058Z,96735.31
2022-11-16T05:30:24.586Z,96738.75
2022-11-16T05:32:51.101Z,96731.44
2022-11-16T05:35:29.268Z,96740.69
2022-11-16T05:37:57.739Z,96746.06
2022-11-16T05:40:24.266Z,96738.34
2022-11-16T05:42:50.973Z,96743.72
2022-11-16T05:45:21.111Z,96739.09
2022-11-16T05:47:49.537Z,96746.03
2022-11-16T05:50:16.336Z,96738.34
2022-11-16T05:52:42.891Z,96744.09
2022-11-16T05:55:09.872Z,96746.00
2022-11-16T05:57:45.382Z,96751.75
2022-11-16T06:00:14.605Z,96756.38
2022-11-16T06:02:41.113Z,96763.66
2022-11-16T06:05:09.731Z,96760.19
2022-11-16T06:07:36.503Z,96765.16
2022-11-16T06:10:03.199Z,96769.38
2022-11-16T06:12:29.840Z,96763.59
2022-11-16T06:14:56.360Z,96768.97
2022-11-16T06:17:24.553Z,96769.31
2022-11-16T06:19:52.797Z,96778.94
2022-11-16T06:22:19.287Z,96782.03
2022-11-16T06:24:45.799Z,96780.50
2022-11-16T06:27:14.552Z,96778.97
2022-11-16T06:29:42.968Z,96785.88
2022-11-16T06:32:09.498Z,96783.19
2022-11-16T06:34:36.214Z,96789.69
2022-11-16T06:37:02.711Z,96791.63
2022-11-16T06:39:31.091Z,96797.00
2022-11-16T06:41:59.383Z,96789.69
2022-11-16T06:44:25.850Z,96786.22
2022-11-16T06:46:52.336Z,96786.59
2022-11-16T06:49:22.583Z,96776.97
2022-11-16T06:51:49.064Z,96776.97
2022-11-16T06:54:15.546Z,96778.53
2022-11-16T06:56:48.311Z,96775.03
2022-11-16T06:59:14.810Z,96770.44
2022-11-16T07:01:44.683Z,96790.78
2022-11-16T07:04:12.184Z,96798.47
2022-11-16T07:06:39.157Z,96796.59
2022-11-16T07:09:06.552Z,96794.28
2022-11-16T07:11:34.401Z,96786.59
2022-11-16T07:14:01.041Z,96798.91
2022-11-16T07:16:27.505Z,96795.06
2022-11-16T07:18:58.204Z,96809.69
2022-11-16T07:21:25.412Z,96810.16
2022-11-16T07:23:51.930Z,96806.78
2022-11-16T07:26:20.159Z,96806.84
2022-11-16T07:28:48.444Z,96798.44
2022-11-16T07:31:16.135Z,96802.34
2022-11-16T07:33:51.140Z,96803.16
2022-11-16T07:36:18.820Z,96810.84
2022-11-16T07:38:45.658Z,96812.03
2022-11-16T07:41:20.232Z,96812.44
2022-11-16T07:43:52.654Z,96805.56
2022-11-16T07:46:46.074Z,96805.22
2022-11-16T07:49:11.712Z,96811.03
2022-11-16T07:51:38.343Z,96816.38
2022-11-16T07:54:06.603Z,96818.72
2022-11-16T07:56:33.359Z,96818.28
2022-11-16T07:58:59.866Z,96818.25
2022-11-16T08:01:26.369Z,96828.72
2022-11-16T08:04:02.090Z,96829.06
2022-11-16T08:06:33.153Z,96832.72
2022-11-16T08:09:00.796Z,96823.31
2022-11-16T08:11:27.730Z,96823.59
2022-11-16T08:13:54.335Z,96826.81
2022-11-16T08:16:22.503Z,96824.72
2022-11-16T08:18:57.053Z,96828.91
2022-11-16T08:21:23.523Z,96830.31
2022-11-16T08:23:55.199Z,96826.06
2022-11-16T08:26:24.722Z,96833.63
2022-11-16T08:28:53.642Z,96829.44
2022-11-16T08:31:28.271Z,96830.53
2022-11-16T08:33:54.898Z,96835.03
2022-11-16T08:36:21.435Z,96825.34
2022-11-16T08:38:49.989Z,96821.25
2022-11-16T08:41:17.741Z,96821.97
2022-11-16T08:43:47.379Z,96830.94
2022-11-16T08:46:14.710Z,96823.63
2022-11-16T08:48:41.365Z,96835.63
2022-11-16T08:51:19.431Z,96830.25
2022-11-16T08:53:49.933Z,96838.28
2022-11-16T08:56:18.916Z,96837.53
2022-11-16T08:58:53.831Z,96845.84
2022-11-16T09:01:28.058Z,96840.19
2022-11-16T09:03:55.208Z,96835.50
2022-11-16T09:06:22.727Z,96848.56
2022-11-16T09:08:52.382Z,96842.72
2022-11-16T09:11:21.797Z,96838.34
2022-11-16T09:13:51.334Z,96833.88
2022-11-16T09:16:22.682Z,96835.00
2022-11-16T09:18:51.191Z,96837.97
2022-11-16T09:21:19.799Z,96830.16
2022-11-16T09:23:47.246Z,96827.31
2022-11-16T09:26:14.123Z,96824.47
2022-11-16T09:28:42.954Z,96819.28
2022-11-16T09:31:12.425Z,96819.03
2022-11-16T09:33:38.945Z,96811.66
2022-11-16T09:36:08.073Z,96807.59
2022-11-16T09:41:56.677Z,96823.97
2022-11-16T09:44:37.239Z,96815.13
2022-11-16T09:47:07.759Z,96820.34
2022-11-16T09:49:46.308Z,96820.31
2022-11-16T09:52:34.048Z,96810.09
2022-11-16T09:55:22.440Z,96816.63
2022-11-16T09:57:52.040Z,96816.06
2022-11-16T10:00:23.017Z,96814.25
2022-11-16T10:03:08.247Z,96820.03
2022-11-16T10:05:38.652Z,96823.13
2022-11-16T10:08:37.600Z,96818.84
2022-11-16T10:11:40.366Z,96820.94
2022-11-16T10:14:27.824Z,96811.19
2022-11-16T10:17:23.354Z,96805.88
2022-11-16T10:20:30.600Z,96800.19
2022-11-16T10:23:10.108Z,96804.81
2022-11-16T10:25:44.015Z,96800.47
2022-11-16T10:28:27.666Z,96792.00
2022-11-16T10:31:16.535Z,96797.41
2022-11-16T10:33:46.673Z,96796.03
2022-11-16T10:36:15.318Z,96794.28
2022-11-16T10:38:44.540Z,96786.34
2022-11-16T10:41:18.675Z,96777.69
2022-11-16T10:43:46.292Z,96778.75
2022-11-16T10:46:22.751Z,96780.75
2022-11-16T10:49:02.223Z,96767.47
2022-11-16T10:51:30.778Z,96754.78
2022-11-16T10:53:59.588Z,96745.50
2022-11-16T10:56:32.614Z,96736.19
2022-11-16T10:59:07.365Z,96743.50
2022-11-16T11:01:38.072Z,96743.88
2022-11-16T11:04:25.849Z,96737.97
2022-11-16T11:07:00.450Z,96735.81
2022-11-16T11:09:38.212Z,96738.91
2022-11-16T11:12:39.579Z,96737.97
2022-11-16T11:15:12.196Z,96735.50
2022-11-16T11:17:49.159Z,96735.59
2022-11-16T11:20:15.989Z,96733.16
2022-11-16T11:22:45.440Z,96735.34
2022-11-16T11:25:32.523Z,96742.03
2022-11-16T11:28:20.338Z,96734.50
2022-11-16T11:31:07.412Z,96726.78
2022-11-16T11:33:38.167Z,96724.06
2022-11-16T11:36:18.800Z,96729.50
2022-11-16T11:39:06.653Z,96721.00
2022-11-16T11:41:43.089Z,96719.19
2022-11-16T11:44:17.013Z,96721.25
2022-11-16T11:49:50.141Z,96707.28
2022-11-16T11:52:35.197Z,96702.78
2022-11-16T11:55:05.612Z,96698.72
2022-11-16T11:57:42.824Z,96698.75
2022-11-16T12:00:16.433Z,96689.75
2022-11-16T12:03:18.035Z,96687.94
2022-11-16T12:05:57.411Z,96697.91
2022-11-16T12:09:05.283Z,96697.56
2022-11-16T12:12:11.803Z,96694.56
2022-11-16T12:15:13.822Z,96701.03
2022-11-16T12:18:06.951Z,96705.97
2022-11-16T12:20:46.329Z,96693.59
2022-11-16T12:23:24.713Z,96689.91
2022-11-16T12:26:01.728Z,96683.28
2022-11-16T12:28:51.506Z,96678.22
2022-11-16T12:31:46.704Z,96668.72
2022-11-16T12:34:25.224Z,96675.47
2022-11-16T12:37:08.636Z,96662.66
2022-11-16T12:39:58.288Z,96655.59
2022-11-16T12:42:33.262Z,96644.06
2022-11-16T12:45:32.561Z,96642.59
2022-11-16T12:48:04.342Z,96640.66
2022-11-16T12:50:48.826Z,96638.31
2022-11-16T12:53:47.121Z,96632.84
2022-11-16T12:56:32.383Z,96628.09
2022-11-16T12:59:19.918Z,96625.03
2022-11-16T13:02:23.928Z,96623.66
2022-11-16T13:05:11.912Z,96617.94
2022-11-16T13:07:44.556Z,96616.28
2022-11-16T13:10:21.205Z,96617.25
2022-11-16T13:13:09.071Z,96612.28
2022-11-16T13:15:44.592Z,96601.88
2022-11-16T13:18:21.381Z,96593.44
2022-11-16T13:20:52.443Z,96591.84
2022-11-16T13:23:33.457Z,96594.78
2022-11-16T13:26:22.293Z,96598.63
2022-11-16T13:29:03.294Z,96607.28
2022-11-16T13:31:46.703Z,96601.94
2022-11-16T13:34:20.418Z,96595.69
2022-11-16T13:36:47.914Z,96595.84
2022-11-16T13:39:21.862Z,96599.69
2022-11-16T13:42:12.411Z,96588.41
2022-11-16T13:44:39.432Z,96586.56
2022-11-16T13:47:20.404Z,96581.56
2022-11-16T13:49:52.377Z,96578.84
2022-11-16T13:52:24.804Z,96580.16
2022-11-16T13:54:57.143Z,96573.25
2022-11-16T13:57:25.031Z,96578.41
2022-11-16T14:00:00.699Z,96579.16
2022-11-16T14:02:29.933Z,96571.66
2022-11-16T14:05:05.355Z,96574.81
2022-11-16T14:07:44.778Z,96575.44
2022-11-16T14:10:12.715Z,96569.91
2022-11-16T14:12:39.148Z,96568.59
2022-11-16T14:15:24.917Z,96567.09
2022-11-16T14:18:14.673Z,96568.97
2022-11-16T14:21:02.414Z,96564.31
2022-11-16T14:23:44.498Z,96561.16
2022-11-16T14:26:37.283Z,96564.97
2022-11-16T14:29:46.216Z,96559.09
2022-11-16T14:35:32.545Z,96558.06
2022-11-16T14:38:06.430Z,96554.97
2022-11-16T14:40:59.187Z,96542.59
2022-11-16T14:43:45.899Z,96544.53
2022-11-16T14:46:37.298Z,96540.31
2022-11-16T14:49:04.999Z,96532.09
2022-11-16T14:51:44.024Z,96522.47
2022-11-16T14:54:32.301Z,96515.88
2022-11-16T14:57:01.819Z,96521.59
2022-11-16T14:59:34.010Z,96515.59
2022-11-16T15:02:13.758Z,96516.16
2022-11-16T15:04:40.441Z,96512.09
2022-11-16T15:07:11.156Z,96517.69
2022-11-16T15:09:42.509Z,96508.22
2022-11-16T15:12:35.238Z,96499.91
2022-11-16T15:15:14.887Z,96507.00
2022-11-16T15:17:45.089Z,96503.69
2022-11-16T15:20:19.953Z,96511.56
2022-11-16T15:22:53.228Z,96513.97
2022-11-16T15:25:28.814Z,96519.53
2022-11-16T15:27:59.521Z,96518.91
2022-11-16T15:30:28.922Z,96513.19
2022-11-16T15:32:56.147Z,96517.47
2022-11-16T15:35:25.651Z,96509.84
2022-11-16T15:38:24.272Z,96514.97
2022-11-16T15:41:03.647Z,96505.44
2022-11-16T15:43:49.724Z,96501.69
2022-11-16T15:46:29.237Z,96500.28
2022-11-16T15:48:56.655Z,96498.81
2022-11-16T15:51:23.664Z,96490.81
2022-11-16T15:53:52.719Z,96493.53
2022-11-16T15:56:31.265Z,96487.78
2022-11-16T15:59:01.231Z,96491.72
2022-11-16T16:01:30.342Z,96484.75
2022-11-16T16:04:01.638Z,96478.59
2022-11-16T16:06:47.263Z,96475.16
2022-11-16T16:09:22.045Z,96475.59
2022-11-16T16:11:51.713Z,96477.94
2022-11-16T16:14:29.185Z,96471.41
2022-11-16T16:17:00.574Z,96477.59
2022-11-16T16:19:38.684Z,96473.00
2022-11-16T16:22:13.715Z,96484.22
2022-11-16T16:24:45.787Z,96482.34
2022-11-16T16:27:15.596Z,96475.41
2022-11-16T16:29:48.258Z,96474.72
2022-11-16T16:32:24.808Z,96476.69
2022-11-16T16:35:02.539Z,96478.69
2022-11-16T16:37:31.584Z,96471.00
2022-11-16T16:39:58.530Z,96462.56
2022-11-16T16:42:27.571Z,96457.97
2022-11-16T16:44:54.097Z,96459.47
2022-11-16T16:47:21.034Z,96460.28
2022-11-16T16:49:53.609Z,96462.63
2022-11-16T16:52:20.112Z,96463.44
2022-11-16T16:54:46.545Z,96461.13
2022-11-16T16:57:17.453Z,96460.38
2022-11-16T16:59:49.848Z,96468.84
2022-11-16T17:02:17.199Z,96468.91
2022-11-16T17:04:46.643Z,96469.69
2022-11-16T17:07:13.217Z,96461.25
2022-11-16T17:09:39.779Z,96467.84
2022-11-16T17:12:08.278Z,96469.78
2022-11-16T17:14:37.196Z,96468.69
2022-11-16T17:17:03.655Z,96466.78
2022-11-16T17:19:30.415Z,96459.91
2022-11-16T17:21:56.920Z,96456.47
2022-11-16T17:24:23.430Z,96456.13
2022-11-16T17:27:00.454Z,96443.06
2022-11-16T17:29:27.568Z,96461.94
2022-11-16T17:31:54.162Z,96460.03
2022-11-16T17:34:20.727Z,96440.00
2022-11-16T17:36:49.045Z,96440.41
2022-11-16T17:39:16.131Z,96425.41
2022-11-16T17:41:44.338Z,96416.19
2022-11-16T17:44:11.087Z,96409.63
2022-11-16T17:46:37.543Z,96396.16
2022-11-16T17:49:05.841Z,96397.31
2022-11-16T17:51:32.425Z,96390.38
2022-11-16T17:53:59.053Z,96385.78
2022-11-16T17:56:26.890Z,96384.63
2022-11-16T17:58:55.093Z,96380.78
2022-11-16T18:01:22.870Z,96386.19
2022-11-16T18:03:51.254Z,96387.28
2022-11-16T18:06:20.252Z,96377.66
2022-11-16T18:08:53.181Z,96388.84
2022-11-16T18:11:25.297Z,96382.66
2022-11-16T18:13:56.475Z,96382.31
2022-11-16T18:16:26.963Z,96370.38
2022-11-16T18:18:58.859Z,96360.03
2022-11-16T18:21:25.752Z,96357.75
2022-11-16T18:23:52.368Z,96346.22
2022-11-16T18:26:22.040Z,96352.00
2022-11-16T18:28:49.563Z,96336.28
2022-11-16T18:31:19.976Z,96333.97
2022-11-16T18:33:50.825Z,96331.28
2022-11-16T18:36:18.774Z,96324.78
2022-11-16T18:38:46.125Z,96320.19
2022-11-16T18:41:19.536Z,96326.72
2022-11-16T18:43:55.805Z,96317.13
2022-11-16T18:46:27.387Z,96314.09
2022-11-16T18:48:55.495Z,96322.94
2022-11-16T18:51:27.547Z,96317.19
2022-11-16T18:53:56.530Z,96317.94
2022-11-16T18:56:25.270Z,96321.78
2022-11-16T18:58:52.936Z,96332.53
2022-11-16T19:01:26.899Z,96350.25
2022-11-16T19:03:55.171Z,96352.56
2022-11-16T19:06:23.265Z,96343.34
2022-11-16T19:08:59.309Z,96333.38
2022-11-16T19:11:28.032Z,96325.31
2022-11-16T19:13:57.826Z,96324.94
2022-11-16T19:16:24.817Z,96312.22
2022-11-16T19:18:51.460Z,96304.91
2022-11-16T19:21:18.831Z,96301.84
2022-11-16T19:23:47.566Z,96298.72
2022-11-16T19:26:16.596Z,96285.63
2022-11-16T19:28:45.700Z,96279.44
2022-11-16T19:31:34.133Z,96274.03
2022-11-16T19:34:09.545Z,96275.97
2022-11-16T19:36:42.697Z,96267.91
2022-11-16T19:39:09.322Z,96247.91
2022-11-16T19:41:35.860Z,96257.50
2022-11-16T19:44:02.507Z,96270.13
2022-11-16T19:46:33.967Z,96267.00
2022-11-16T19:49:06.359Z,96273.88
2022-11-16T19:51:37.528Z,96271.56
2022-11-16T19:54:04.237Z,96264.66
2022-11-16T19:56:32.773Z,96265.81
2022-11-16T19:58:59.301Z,96273.13
2022-11-16T20:01:29.540Z,96272.38
2022-11-16T20:03:58.330Z,96276.97
2022-11-16T20:06:28.428Z,96278.00
2022-11-16T20:08:58.472Z,96273.72
2022-11-16T20:11:27.553Z,96259.03
2022-11-16T20:13:57.007Z,96272.84
2022-11-16T20:16:38.758Z,96275.13
2022-11-16T20:19:10.344Z,96267.00
2022-11-16T20:21:39.128Z,96264.25
2022-11-16T20:24:08.911Z,96258.44
2022-11-16T20:26:37.207Z,96259.13
2022-11-16T20:29:04.646Z,96247.13
2022-11-16T20:31:35.573Z,96250.16
2022-11-16T20:34:05.201Z,96241.63
2022-11-16T20:36:43.181Z,96241.91
2022-11-16T20:39:13.994Z,96238.34
2022-11-16T20:41:40.821Z,96237.91
2022-11-16T20:44:16.857Z,96242.88
2022-11-16T20:46:45.139Z,96247.00
2022-11-16T20:49:11.889Z,96248.13
2022-11-16T20:51:38.726Z,96254.31
2022-11-16T20:54:05.416Z,96261.94
2022-11-16T20:56:31.987Z,96265.00
2022-11-16T20:59:01.242Z,96272.66
2022-11-16T21:01:29.015Z,96271.13
2022-11-16T21:03:56.599Z,96277.31
2022-11-16T21:06:25.487Z,96277.31
2022-11-16T21:08:52.199Z,96278.91
2022-11-16T21:11:21.556Z,96284.34
2022-11-16T21:14:09.088Z,96282.03
2022-11-16T21:16:36.372Z,96282.81
2022-11-16T21:19:03.557Z,96275.91
2022-11-16T21:21:32.252Z,96272.38
2022-11-16T21:23:58.711Z,96277.00
2022-11-16T21:26:28.249Z,96276.66
2022-11-16T21:28:56.763Z,96270.91
2022-11-16T21:31:25.865Z,96268.59
2022-11-16T21:33:53.408Z,96266.34
2022-11-16T21:36:22.975Z,96276.81
2022-11-16T21:38:49.904Z,96268.38
2022-11-16T21:41:18.521Z,96268.38
2022-11-16T21:43:47.355Z,96273.78
2022-11-16T21:46:22.532Z,96265.69
2022-11-16T21:48:51.359Z,96262.19
2022-11-16T21:51:19.890Z,96261.38
2022-11-16T21:53:47.054Z,96256.72
2022-11-16T21:56:24.171Z,96253.66
2022-11-16T21:58:54.145Z,96250.97
2022-11-16T22:01:22.146Z,96254.00
2022-11-16T22:04:10.621Z,96242.06
2022-11-16T22:06:56.103Z,96258.25
2022-11-16T22:09:23.173Z,96237.81
2022-11-16T22:11:50.245Z,96214.69
2022-11-16T22:14:17.072Z,96161.22
2022-11-16T22:16:45.459Z,96159.00
2022-11-16T22:19:11.962Z,96183.41
2022-11-16T22:21:41.260Z,96195.81
2022-11-16T22:24:14.526Z,96227.06
2022-11-16T22:26:41.115Z,96240.94
2022-11-16T22:29:07.655Z,96247.50
2022-11-16T22:31:36.103Z,96255.88
2022-11-16T22:34:06.316Z,96255.09
2022-11-16T22:36:32.785Z,96250.81
2022-11-16T22:38:59.556Z,96255.41
2022-11-16T22:41:26.189Z,96272.66
2022-11-16T22:43:52.804Z,96253.75
2022-11-16T22:46:23.916Z,96210.94
2022-11-16T22:48:50.379Z,96212.09
2022-11-16T22:51:27.446Z,96224.44
2022-11-16T22:53:54.950Z,96225.63
2022-11-16T22:56:21.762Z,96215.28
2022-11-16T22:58:48.636Z,96234.22
2022-11-16T23:01:15.184Z,96226.13
2022-11-16T23:03:46.311Z,96228.44
2022-11-16T23:06:13.300Z,96211.44
2022-11-16T23:08:42.578Z,96239.53
2022-11-16T23:11:33.453Z,96190.59
2022-11-16T23:14:18.531Z,96174.47
2022-11-16T23:16:45.531Z,96147.09
2022-11-16T23:19:34.757Z,96146.28
2022-11-16T23:22:20.597Z,96146.63
2022-11-16T23:25:06.003Z,96151.75
2022-11-16T23:27:42.642Z,96140.72
2022-11-16T23:30:13.332Z,96146.22
2022-11-16T23:32:41.101Z,96143.94
2022-11-16T23:35:10.330Z,96145.56
2022-11-16T23:37:54.783Z,96150.06
2022-11-16T23:40:25.330Z,96149.22
2022-11-16T23:43:12.117Z,96148.00
2022-11-16T23:45:40.229Z,96140.59
2022-11-16T23:48:08.314Z,96135.53
2022-11-16T23:50:37.368Z,96132.78
2022-11-16T23:53:05.204Z,96132.34
2022-11-16T23:55:44.923Z,96124.59
2022-11-16T23:58:13.879Z,96125.72
